Flight Track Log - Related Links

Times and Time Zones

All times are in EDT time to prevent confusion due to time zone crossing. See the N236WR flight status page for this flight to view local times or setup timezone preferences in your user account.

Time Position Orientation Groundspeed Altitude Reporting Facility
EDT Latitude Longitude Course Direction KTS MPH feet Rate Location/Type
Mon 01:36:29 PM 39.3667 -84.5333 303° West 136 157 1,400  Level Cincinnati TRACON
Mon 01:36:53 PM 39.3833 -84.5667 303° West 142 163 2,100 1,271 Climbing Cincinnati TRACON
Mon 01:37:54 PM 39.3833 -84.6167 270° West 193 222 3,200 1,394 Climbing Cincinnati TRACON
Mon 01:38:32 PM 39.3956 -84.6581 291° West 157 181 4,400 1,860 Climbing Indianapolis Center
Mon 01:39:34 PM 39.4222 -84.7100 304° West 173 199 6,300 1,887 Climbing Indianapolis Center
Mon 01:40:36 PM 39.4475 -84.7594 304° West 165 190 8,300 1,854 Climbing Indianapolis Center
Mon 01:41:37 PM 39.4694 -84.8081 300° West 158 182 10,100 1,317 Climbing Indianapolis Center
Mon 01:42:39 PM 39.4928 -84.8608 300° West 165 190 11,000 871 Climbing Indianapolis Center
Mon 01:43:41 PM 39.5308 -84.9317 305° West 216 249 11,900 1,113 Climbing Indianapolis Center
Mon 01:44:43 PM 39.5647 -84.9914 306° West 206 237 13,300 1,306 Climbing Indianapolis Center
Mon 01:45:45 PM 39.5994 -85.0422 312° West 192 221 14,600 1,113 Climbing Indianapolis Center
Mon 01:46:47 PM 39.6425 -85.0903 319° Northwest 200 230 15,600 683 Climbing Indianapolis Center
Mon 01:47:48 PM 39.6875 -85.1400 320° Northwest 208 239 16,000 293 Climbing Indianapolis Center
Mon 01:48:50 PM 39.7397 -85.1961 320° Northwest 235 270 16,200 629 Climbing Indianapolis Center
Mon 01:49:52 PM 39.7975 -85.2608 319° Northwest 233 268 17,300 968 Climbing Indianapolis Center
Mon 01:50:54 PM 39.8453 -85.3133 320° Northwest 226 260 18,200 919 Climbing Indianapolis Center
Mon 01:51:56 PM 39.8928 -85.3664 319° Northwest 224 258 19,200 823 Climbing Indianapolis Center
Mon 01:52:58 PM 39.9397 -85.4183 320° Northwest 223 257 19,900 387 Climbing Indianapolis Center
Mon 01:54:00 PM 39.9903 -85.4750 319° Northwest 236 272 20,000 49 Climbing Indianapolis Center
Mon 01:55:01 PM 40.0447 -85.5347 320° Northwest 251 289 20,000  Level Indianapolis Center
Mon 01:56:03 PM 40.1083 -85.6053 320° Northwest 256 295 20,000  Level Indianapolis Center
Mon 01:56:33 PM 40.1264 -85.6242 321° Northwest 257 296 20,000  Level Chicago Center
Mon 01:57:35 PM 40.1900 -85.6950 320° Northwest 257 296 20,000  Level Chicago Center
Mon 01:58:37 PM 40.2444 -85.7556 320° Northwest 255 293 20,000  Level Chicago Center
Mon 01:59:39 PM 40.2986 -85.8181 319° Northwest 256 295 20,000  Level Chicago Center
Mon 02:00:41 PM 40.3481 -85.8833 315° West 252 290 20,000  Level Chicago Center
Mon 02:01:43 PM 40.3919 -85.9561 308° West 253 291 20,000  Level Chicago Center
Mon 02:02:45 PM 40.4350 -86.0303 307° West 254 292 20,000  Level Chicago Center
Mon 02:03:47 PM 40.4842 -86.1158 307° West 251 289 20,000 -98 Level Chicago Center
Mon 02:04:48 PM 40.5281 -86.1875 309° West 251 289 19,800 -537 Descending Chicago Center
Mon 02:05:50 PM 40.5717 -86.2647 307° West 259 298 18,900 -871 Descending Chicago Center
Mon 02:06:52 PM 40.6186 -86.3436 308° West 269 310 18,000 -919 Descending Chicago Center
Mon 02:07:54 PM 40.6644 -86.4225 307° West 271 312 17,000 -919 Descending Chicago Center
Mon 02:08:56 PM 40.7064 -86.4975 306° West 271 312 16,100 -976 Descending Chicago Center
Mon 02:09:57 PM 40.7606 -86.5933 307° West 270 311 15,000 -1,024 Descending Chicago Center
Mon 02:10:59 PM 40.8067 -86.6672 310° West 264 304 14,000 -1,016 Descending Chicago Center
Mon 02:12:01 PM 40.8561 -86.7381 313° West 262 302 12,900 -1,065 Descending Chicago Center
Mon 02:13:03 PM 40.9042 -86.8011 315° West 253 291 11,800 -927 Descending Chicago Center
Mon 02:14:04 PM 40.9519 -86.8686 313° West 252 290 11,000 -390 Descending Chicago Center
Mon 02:15:06 PM 41.0097 -86.9486 314° West 252 290 11,000 -339 Level Chicago Center
Mon 02:16:08 PM 41.0628 -86.9922 328° Northwest 258 297 10,300 -1,065 Descending Chicago Center
Mon 02:17:10 PM 41.1294 -87.0244 340° North 240 276 8,800 -1,452 Descending Chicago Center
Mon 02:18:12 PM 41.1889 -87.0606 335° Northwest 238 274 7,300 -1,463 Descending Chicago Center
Mon 02:19:13 PM 41.2481 -87.0936 337° Northwest 234 269 5,800 -1,561 Descending Chicago Center
Mon 02:20:15 PM 41.3167 -87.1342 336° Northwest 229 264 4,100 -871 Descending Chicago Center
Mon 02:21:17 PM 41.3753 -87.1719 334° Northwest 232 267 4,000 -48 Descending Chicago Center
Mon 02:22:19 PM 41.4361 -87.2117 334° Northwest 240 276 4,000 -48 Level Chicago Center
Mon 02:23:22 PM 41.5000 -87.2500 336° Northwest 252 290 3,900 -465 Descending Chicago TRACON
Mon 02:24:28 PM 41.5667 -87.3000 331° Northwest 229 264 3,000 -429 Descending Chicago TRACON
Mon 02:25:28 PM 41.6333 -87.3333 340° North 232 267 3,000 -53 Level Chicago TRACON
Mon 02:26:22 PM 41.6833 -87.3667 334° Northwest 227 261 2,900 -53 Descending Chicago TRACON
Mon 02:27:22 PM 41.7333 -87.4000 334° Northwest 228 262 2,900  Level Chicago TRACON
Mon 02:28:22 PM 41.8000 -87.4167 349° North 230 265 2,900  Level Chicago TRACON
Mon 02:29:23 PM 41.8667 -87.4500 340° North 229 264 2,900  Level Chicago TRACON
Mon 02:30:17 PM 41.9167 -87.4667 346° North 228 262 2,900  Level Chicago TRACON
Mon 02:31:17 PM 41.9833 -87.5000 340° North 228 262 2,900  Level Chicago TRACON
Mon 02:32:17 PM 42.0333 -87.5167 346° North 228 262 2,900  Level Chicago TRACON
Mon 02:33:17 PM 42.1000 -87.5500 340° North 220 253 2,900  Level Chicago TRACON
Mon 02:34:17 PM 42.1500 -87.6000 323° Northwest 222 255 2,900  Level Chicago TRACON
Mon 02:34:42 PM 42.1589 -87.6192 302° West 225 259 2,900  Level Chicago Center
Mon 02:35:44 PM 42.2094 -87.6656 326° Northwest 224 258 2,900 48 Level Chicago Center
Mon 02:36:46 PM 42.2564 -87.7381 311° West 220 253 3,000  Climbing Chicago Center
Mon 02:37:48 PM 42.2658 -87.8117 280° West 210 242 2,900 -145 Descending Chicago Center
Mon 02:38:50 PM 42.2631 -87.8769 267° West 191 220 2,700 -290 Descending Chicago Center
Mon 02:39:52 PM 42.2383 -87.9397 242° Southwest 190 219 2,300 -194 Descending Chicago Center
Mon 02:40:54 PM 42.2044 -87.9522 195° South 164 189 2,300 -97 Level Chicago Center
Mon 02:41:56 PM 42.1675 -87.9319 158° South 146 168 2,100 -194 Descending Chicago Center
Mon 02:45:00 PM 42.1143 -87.9015 166° South  Level Estimated

Login

Don't have an account? Register now (free) for customized features, flight alerts, and more!